Time;durP1;ratioP1;P1;durP2;ratioP2;P2;SDS_P1;SDS_P2;PMS_P1;PMS_P2;Temp;Humidity;BMP_temperature;BMP_pressure;BME280_temperature;BME280_humidity;BME280_pressure;Samples;Min_cycle;Max_cycle;Signal;HPM_P1;HPM_P2
2021/03/14 00:00:58;;;;;;;17.63;3.42;;;5.80;88.60;;;;;;5031566;28;20046;-49
2021/03/14 00:03:27;;;;;;;17.17;3.25;;;5.80;88.70;;;;;;5017198;28;20060;-53
2021/03/14 00:05:54;;;;;;;19.52;3.67;;;5.80;88.40;;;;;;5031391;28;20053;-49
2021/03/14 00:08:22;;;;;;;17.63;3.80;;;5.80;88.60;;;;;;5029087;28;20719;-53
2021/03/14 00:10:54;;;;;;;20.85;4.80;;;5.80;89.00;;;;;;5032093;28;20045;-49
2021/03/14 00:13:24;;;;;;;16.40;3.58;;;5.70;89.00;;;;;;5035165;28;20118;-53
2021/03/14 00:15:51;;;;;;;23.90;4.32;;;5.70;89.00;;;;;;5036337;28;20053;-51
2021/03/14 00:18:19;;;;;;;26.13;4.15;;;5.70;89.00;;;;;;5027147;28;20123;-49
2021/03/14 00:20:45;;;;;;;18.42;3.05;;;5.80;88.00;;;;;;5013106;28;20102;-51
2021/03/14 00:23:11;;;;;;;22.20;4.20;;;5.70;88.20;;;;;;5030932;28;20052;-50
2021/03/14 00:25:37;;;;;;;18.45;3.47;;;5.80;87.20;;;;;;5008082;28;20065;-51
2021/03/14 00:28:04;;;;;;;12.82;3.22;;;5.70;87.10;;;;;;5004402;28;20614;-51
2021/03/14 00:30:30;;;;;;;16.15;3.03;;;5.70;87.50;;;;;;5017699;28;20132;-51
2021/03/14 00:33:46;;;;;;;16.52;3.58;;;5.60;88.40;;;;;;5023723;28;20107;-48
2021/03/14 00:36:12;;;;;;;13.88;2.65;;;5.50;88.20;;;;;;5019978;28;20040;-53
2021/03/14 00:38:37;;;;;;;17.45;2.83;;;5.60;88.00;;;;;;5023339;28;20050;-51
2021/03/14 00:41:03;;;;;;;14.00;2.72;;;5.50;88.00;;;;;;5020381;28;20050;-49
2021/03/14 00:43:29;;;;;;;13.57;2.95;;;5.50;88.40;;;;;;5024793;28;20052;-52
2021/03/14 00:45:55;;;;;;;12.45;3.22;;;5.50;88.50;;;;;;5007093;28;20056;-52
2021/03/14 00:48:21;;;;;;;18.35;3.88;;;5.50;88.20;;;;;;5010931;28;20494;-51
2021/03/14 00:50:47;;;;;;;14.50;3.33;;;5.50;88.30;;;;;;5006867;28;20056;-49
2021/03/14 00:53:12;;;;;;;14.77;3.58;;;5.50;88.90;;;;;;5024551;28;20076;-51
2021/03/14 00:55:38;;;;;;;16.17;3.38;;;5.40;89.00;;;;;;5015599;28;20045;-53
2021/03/14 00:58:05;;;;;;;16.52;3.40;;;5.40;89.40;;;;;;5004388;28;20113;-53
2021/03/14 01:00:31;;;;;;;14.43;2.75;;;5.40;89.30;;;;;;5012431;28;20060;-50
2021/03/14 01:02:57;;;;;;;17.10;3.60;;;5.40;89.50;;;;;;5016734;28;20054;-54
2021/03/14 01:05:23;;;;;;;15.63;2.53;;;5.40;89.40;;;;;;5022493;28;20067;-54
2021/03/14 01:07:49;;;;;;;18.58;3.17;;;5.40;89.90;;;;;;5021076;28;20464;-51
2021/03/14 01:10:15;;;;;;;18.58;3.30;;;5.40;89.50;;;;;;5025757;28;20893;-51
2021/03/14 01:12:42;;;;;;;18.63;3.70;;;5.40;89.90;;;;;;5020238;28;20129;-48
2021/03/14 01:15:11;;;;;;;14.90;3.15;;;5.40;90.00;;;;;;5014589;28;20060;-49
2021/03/14 01:17:38;;;;;;;16.77;3.53;;;5.30;90.10;;;;;;5021548;28;20548;-51
2021/03/14 01:20:07;;;;;;;16.25;2.83;;;5.30;90.10;;;;;;5014712;28;20399;-50
2021/03/14 01:22:33;;;;;;;14.90;3.22;;;5.30;90.20;;;;;;5019210;28;20484;-49
2021/03/14 01:24:59;;;;;;;21.90;3.95;;;5.30;90.20;;;;;;5018585;28;20033;-47
2021/03/14 01:27:25;;;;;;;18.85;4.03;;;5.40;90.30;;;;;;5022034;28;20498;-51
2021/03/14 01:29:50;;;;;;;15.05;3.17;;;5.40;90.40;;;;;;5039135;28;20040;-51
2021/03/14 01:32:50;;;;;;;20.42;3.58;;;5.30;90.50;;;;;;5043041;28;20080;-56
2021/03/14 01:35:38;;;;;;;22.05;4.53;;;5.40;90.50;;;;;;5030458;28;20044;-53
2021/03/14 01:38:57;;;;;;;13.25;3.30;;;5.40;90.40;;;;;;5044612;28;20056;-55
2021/03/14 01:41:23;;;;;;;15.55;3.80;;;5.30;90.60;;;;;;4992312;23;20496;-54
2021/03/14 01:44:10;;;;;;;23.17;4.60;;;5.30;90.60;;;;;;5018224;28;20060;-51
2021/03/14 01:46:37;;;;;;;22.10;4.30;;;5.30;90.70;;;;;;5015602;28;20037;-50
2021/03/14 01:49:03;;;;;;;17.50;2.90;;;5.30;90.80;;;;;;5014563;28;20057;-50
2021/03/14 01:51:31;;;;;;;19.80;3.17;;;5.30;90.70;;;;;;5018154;28;20108;-49
2021/03/14 01:53:57;;;;;;;19.58;3.22;;;5.30;90.60;;;;;;4998831;28;20054;-50
2021/03/14 01:56:23;;;;;;;17.45;3.08;;;5.30;90.70;;;;;;5006027;28;20046;-51
2021/03/14 01:58:49;;;;;;;19.40;3.45;;;5.40;90.60;;;;;;5005228;28;20152;-48
2021/03/14 02:01:15;;;;;;;19.40;3.40;;;5.40;90.50;;;;;;5014917;28;20046;-51
2021/03/14 02:03:41;;;;;;;18.20;3.58;;;5.40;90.50;;;;;;5007009;28;20097;-50
2021/03/14 02:06:07;;;;;;;22.83;3.67;;;5.40;90.60;;;;;;5010403;28;20045;-51
2021/03/14 02:08:33;;;;;;;19.17;3.28;;;5.40;90.60;;;;;;4988412;28;20046;-51
2021/03/14 02:11:23;;;;;;;20.98;4.53;;;5.40;90.70;;;;;;5008354;28;20493;-54
2021/03/14 02:13:52;;;;;;;20.05;3.95;;;5.30;90.60;;;;;;5017229;28;20133;-51
2021/03/14 02:16:26;;;;;;;20.73;4.22;;;5.40;90.60;;;;;;4997023;28;20052;-51
2021/03/14 02:18:57;;;;;;;19.55;4.75;;;5.40;90.60;;;;;;5021659;28;20049;-53
2021/03/14 02:21:23;;;;;;;13.77;3.72;;;5.40;90.50;;;;;;4997147;28;20472;-54
2021/03/14 02:24:01;;;;;;;16.98;3.55;;;5.40;90.40;;;;;;5006154;28;20053;-49
2021/03/14 02:26:40;;;;;;;21.40;3.80;;;5.50;90.30;;;;;;5011554;28;20041;-47
2021/03/14 02:29:10;;;;;;;24.45;4.55;;;5.50;90.40;;;;;;4985878;28;20045;-53
2021/03/14 02:31:37;;;;;;;18.50;3.92;;;5.50;90.40;;;;;;5023101;28;20414;-54
2021/03/14 02:34:08;;;;;;;22.17;5.28;;;5.50;90.50;;;;;;5017639;28;20069;-51
2021/03/14 02:36:38;;;;;;;22.05;4.30;;;5.50;90.40;;;;;;5002692;28;20104;-54
2021/03/14 02:39:24;;;;;;;25.50;4.22;;;5.50;90.50;;;;;;5020384;28;20144;-54
2021/03/14 02:41:55;;;;;;;23.20;4.90;;;5.50;90.40;;;;;;4995943;28;20149;-49
2021/03/14 02:44:26;;;;;;;19.40;4.03;;;5.50;90.60;;;;;;4994746;28;20398;-53
2021/03/14 02:46:52;;;;;;;27.63;3.67;;;5.50;90.60;;;;;;5001073;28;20068;-53
2021/03/14 02:49:23;;;;;;;20.45;4.03;;;5.50;90.60;;;;;;4997767;28;20128;-48
2021/03/14 02:51:49;;;;;;;18.42;3.97;;;5.50;90.50;;;;;;4994296;28;20071;-48
2021/03/14 02:54:19;;;;;;;22.02;4.53;;;5.50;90.60;;;;;;5000063;28;20045;-50
2021/03/14 02:56:48;;;;;;;17.52;4.30;;;5.50;90.70;;;;;;4991013;28;20055;-56
2021/03/14 02:59:21;;;;;;;24.48;5.10;;;5.50;90.60;;;;;;4965581;28;20062;-51
2021/03/14 03:01:49;;;;;;;19.58;4.28;;;5.50;90.70;;;;;;4981844;28;20155;-52
2021/03/14 03:04:18;;;;;;;26.08;5.45;;;5.50;90.70;;;;;;4986295;28;20056;-51
2021/03/14 03:07:04;;;;;;;27.20;4.88;;;5.50;90.90;;;;;;4999078;28;20110;-54
2021/03/14 03:09:30;;;;;;;22.77;4.18;;;5.50;90.90;;;;;;5002637;28;20054;-52
2021/03/14 03:11:56;;;;;;;25.00;5.25;;;5.50;90.80;;;;;;4988392;28;20142;-50
2021/03/14 03:14:56;;;;;;;23.48;5.60;;;5.40;90.90;;;;;;4988788;28;20069;-54
2021/03/14 03:17:25;;;;;;;26.27;5.28;;;5.40;90.60;;;;;;4996995;28;20137;-48
2021/03/14 03:19:54;;;;;;;24.05;4.85;;;5.40;90.70;;;;;;4990631;28;20060;-55
2021/03/14 03:22:21;;;;;;;24.13;4.40;;;5.40;90.90;;;;;;4990748;28;20825;-55
2021/03/14 03:24:48;;;;;;;18.58;3.67;;;5.30;90.80;;;;;;4987038;28;20080;-53
2021/03/14 03:27:14;;;;;;;25.27;4.32;;;5.30;91.20;;;;;;4987962;28;20118;-55
2021/03/14 03:29:41;;;;;;;23.08;6.10;;;5.30;91.10;;;;;;4996850;28;20129;-58
2021/03/14 03:32:07;;;;;;;25.75;5.00;;;5.20;91.20;;;;;;4986706;28;20046;-55
2021/03/14 03:34:33;;;;;;;26.50;4.55;;;5.20;91.10;;;;;;5002220;28;20379;-52
2021/03/14 03:36:58;;;;;;;21.58;4.50;;;5.20;91.10;;;;;;4988187;28;20105;-50
2021/03/14 03:39:24;;;;;;;17.40;4.97;;;5.10;91.20;;;;;;4984879;28;20513;-55
2021/03/14 03:42:00;;;;;;;19.38;3.80;;;5.10;91.20;;;;;;4998478;28;20050;-53
2021/03/14 03:48:09;;;;;;;23.48;4.50;;;5.10;91.20;;;;;;4990728;28;20501;-54
2021/03/14 03:51:00;;;;;;;28.08;4.43;;;5.10;91.30;;;;;;4981598;28;20054;-54
2021/03/14 03:53:27;;;;;;;24.08;4.88;;;5.10;91.40;;;;;;4999450;28;20066;-56
2021/03/14 03:55:55;;;;;;;22.98;5.53;;;5.10;91.40;;;;;;4972595;28;20050;-46
2021/03/14 03:58:24;;;;;;;21.70;4.53;;;5.20;91.30;;;;;;4981811;28;20052;-49
2021/03/14 04:00:51;;;;;;;21.20;4.47;;;5.10;91.30;;;;;;4996868;28;20053;-54
2021/03/14 04:03:18;;;;;;;24.77;5.78;;;5.10;91.50;;;;;;5001327;28;20045;-54
2021/03/14 04:05:44;;;;;;;19.08;4.00;;;5.20;91.40;;;;;;5001585;28;20053;-53
2021/03/14 04:08:12;;;;;;;20.58;4.70;;;5.20;91.50;;;;;;5001672;28;20042;-50
2021/03/14 04:10:38;;;;;;;19.38;4.82;;;5.20;91.10;;;;;;5002298;28;20077;-52
2021/03/14 04:13:07;;;;;;;19.85;4.85;;;5.20;91.10;;;;;;5001129;28;20057;-54
2021/03/14 04:15:36;;;;;;;23.45;4.65;;;5.20;91.00;;;;;;5003717;28;20073;-49
2021/03/14 04:18:03;;;;;;;17.60;4.28;;;5.20;90.80;;;;;;4983926;28;20494;-50
2021/03/14 04:20:40;;;;;;;17.00;4.10;;;5.20;91.00;;;;;;4984671;28;20057;-49
2021/03/14 04:23:12;;;;;;;18.48;4.22;;;5.10;90.90;;;;;;5002563;28;20044;-48
2021/03/14 04:25:39;;;;;;;9.82;2.90;;;5.10;90.90;;;;;;5004104;28;20562;-49
2021/03/14 04:28:06;;;;;;;11.25;3.10;;;5.00;90.90;;;;;;4982661;28;20573;-55
2021/03/14 04:30:33;;;;;;;10.68;2.85;;;4.90;90.80;;;;;;5003051;28;20498;-53
2021/03/14 04:33:00;;;;;;;13.93;3.08;;;4.90;90.50;;;;;;4985424;28;20057;-48
2021/03/14 04:35:27;;;;;;;9.07;2.20;;;5.00;90.50;;;;;;5005641;28;20053;-49
2021/03/14 04:37:54;;;;;;;12.05;2.97;;;4.90;90.30;;;;;;5004116;28;20053;-55
2021/03/14 04:40:20;;;;;;;10.13;2.28;;;4.90;90.30;;;;;;5013275;28;20061;-54
2021/03/14 04:42:49;;;;;;;13.55;3.13;;;4.90;90.40;;;;;;5018069;28;20037;-51
2021/03/14 04:45:16;;;;;;;11.63;3.10;;;4.90;90.80;;;;;;4991015;28;20074;-51
2021/03/14 04:47:44;;;;;;;11.73;2.88;;;4.90;90.90;;;;;;5010802;28;20124;-52
2021/03/14 04:50:16;;;;;;;13.50;3.53;;;4.90;91.00;;;;;;5006008;28;20046;-48
2021/03/14 04:52:44;;;;;;;;;;;4.90;91.20;;;;;;5009264;28;20081;-51
2021/03/14 04:55:12;;;;;;;12.73;3.13;;;4.90;91.30;;;;;;4998443;28;19932;-53
2021/03/14 04:57:40;;;;;;;12.80;3.97;;;4.80;91.70;;;;;;5015789;28;20585;-54
2021/03/14 05:00:09;;;;;;;9.73;3.20;;;4.80;91.90;;;;;;5008134;28;20037;-54
2021/03/14 05:02:37;;;;;;;16.88;4.10;;;4.80;92.00;;;;;;4991039;28;20377;-54
2021/03/14 05:05:05;;;;;;;13.90;3.85;;;4.80;92.10;;;;;;5023336;28;20155;-55
2021/03/14 05:07:31;;;;;;;18.13;4.05;;;4.80;92.20;;;;;;5020322;28;20545;-57
2021/03/14 05:10:07;;;;;;;19.83;4.93;;;4.80;92.30;;;;;;5004773;28;20065;-55
2021/03/14 05:12:33;;;;;;;17.67;4.47;;;4.80;92.50;;;;;;4999321;28;20056;-56
2021/03/14 05:15:00;;;;;;;17.35;4.00;;;4.80;92.60;;;;;;5018384;28;20410;-59
2021/03/14 05:17:26;;;;;;;19.00;4.28;;;4.80;92.70;;;;;;5009572;28;20162;-56
2021/03/14 05:19:58;;;;;;;19.27;4.40;;;4.90;92.70;;;;;;4998259;28;20644;-55
2021/03/14 05:22:24;;;;;;;;;;;4.90;92.80;;;;;;5006626;28;20100;-55
2021/03/14 05:24:51;;;;;;;14.05;4.63;;;4.90;92.80;;;;;;4998092;28;20036;-54
2021/03/14 05:27:18;;;;;;;21.75;5.43;;;4.90;92.80;;;;;;5012890;28;20064;-52
2021/03/14 05:29:45;;;;;;;16.52;4.35;;;4.90;92.60;;;;;;5005469;28;20081;-51
2021/03/14 05:32:11;;;;;;;18.75;4.90;;;5.00;92.70;;;;;;5008919;28;20484;-53
2021/03/14 05:34:37;;;;;;;24.42;5.72;;;5.00;92.50;;;;;;5002243;28;20060;-51
2021/03/14 05:37:27;;;;;;;10.45;3.67;;;5.00;92.30;;;;;;5000944;28;20057;-49
2021/03/14 05:39:53;;;;;;;23.50;4.50;;;4.90;92.30;;;;;;5016308;28;20064;-51
2021/03/14 05:42:19;;;;;;;21.05;4.28;;;4.90;92.30;;;;;;4986817;28;20545;-48
2021/03/14 05:44:46;;;;;;;15.80;4.82;;;4.90;92.30;;;;;;5007422;28;20081;-48
2021/03/14 05:47:12;;;;;;;20.02;4.53;;;4.90;92.40;;;;;;5008432;28;20052;-61
2021/03/14 05:50:05;;;;;;;20.45;5.00;;;5.00;92.20;;;;;;5017516;28;20891;-50
2021/03/14 05:52:32;;;;;;;14.68;4.35;;;5.00;91.90;;;;;;5012585;28;20038;-52
2021/03/14 05:54:58;;;;;;;14.63;4.63;;;5.00;92.00;;;;;;5021213;28;20044;-52
2021/03/14 05:57:24;;;;;;;10.93;3.40;;;4.90;92.10;;;;;;5018569;28;20140;-50
2021/03/14 05:59:52;;;;;;;14.13;3.65;;;4.90;92.00;;;;;;5011343;28;20080;-51
2021/03/14 06:02:21;;;;;;;13.98;3.50;;;4.80;92.10;;;;;;5003503;28;20481;-51
2021/03/14 06:04:47;;;;;;;14.30;3.95;;;4.90;91.90;;;;;;4987211;28;20045;-52
2021/03/14 06:07:14;;;;;;;17.52;4.18;;;4.80;92.10;;;;;;5008303;28;20045;-52
2021/03/14 06:09:41;;;;;;;12.82;3.90;;;4.70;92.10;;;;;;5002986;28;20042;-52
2021/03/14 06:12:11;;;;;;;14.00;3.78;;;4.70;92.10;;;;;;4970009;28;20054;-54
2021/03/14 06:14:37;;;;;;;14.05;3.38;;;4.60;92.20;;;;;;5005731;28;20108;-48
2021/03/14 06:17:03;;;;;;;13.77;3.67;;;4.60;92.30;;;;;;5018282;28;20050;-51
2021/03/14 06:19:29;;;;;;;12.23;4.13;;;4.50;92.50;;;;;;5009013;28;20053;-48
2021/03/14 06:22:18;;;;;;;15.10;3.75;;;4.50;92.60;;;;;;5021519;28;20059;-53
2021/03/14 06:24:56;;;;;;;11.15;4.00;;;4.40;92.70;;;;;;5016350;28;20053;-54
2021/03/14 06:27:30;;;;;;;15.85;3.63;;;4.50;92.70;;;;;;5016038;28;20046;-52
2021/03/14 06:29:56;;;;;;;10.45;3.85;;;4.40;92.80;;;;;;4993013;28;20073;-52
2021/03/14 06:33:18;;;;;;;11.18;3.38;;;4.50;92.80;;;;;;5001741;28;20045;-50
2021/03/14 06:35:52;;;;;;;12.50;3.55;;;4.50;92.90;;;;;;4921291;29;20062;-51
2021/03/14 06:38:32;;;;;;;11.65;3.95;;;4.60;92.80;;;;;;4941540;28;20059;-51
2021/03/14 06:41:04;;;;;;;11.63;3.03;;;4.60;92.80;;;;;;4940625;29;20115;-51
2021/03/14 06:43:35;;;;;;;14.98;3.15;;;4.70;92.30;;;;;;4943458;28;20051;-56
2021/03/14 06:46:18;;;;;;;7.10;2.72;;;4.80;92.40;;;;;;4925999;29;20086;-56
2021/03/14 06:48:44;;;;;;;8.45;2.47;;;4.90;92.20;;;;;;4944387;28;20063;-53
2021/03/14 06:54:26;;;;;;;11.63;2.80;;;5.00;91.60;;;;;;5018287;23;20050;-56
2021/03/14 06:57:08;;;;;;;12.90;2.60;;;5.20;91.40;;;;;;4996548;28;20528;-51
2021/03/14 06:59:40;;;;;;;13.30;3.25;;;5.20;91.10;;;;;;4992106;28;20050;-50
2021/03/14 07:02:11;;;;;;;7.57;2.63;;;5.20;90.70;;;;;;4992537;28;20058;-51
2021/03/14 07:04:46;;;;;;;18.60;9.38;;;5.30;90.80;;;;;;4998133;28;20603;-53
2021/03/14 07:07:24;;;;;;;12.80;3.72;;;5.40;90.90;;;;;;5007696;28;20037;-51
2021/03/14 07:10:07;;;;;;;28.48;16.50;;;5.50;90.80;;;;;;5004886;28;20072;-51
2021/03/14 07:12:37;;;;;;;10.50;4.32;;;5.70;90.20;;;;;;4994756;28;20046;-49
2021/03/14 07:15:13;;;;;;;13.10;3.25;;;5.90;90.10;;;;;;4996169;28;20098;-52
2021/03/14 07:17:41;;;;;;;10.93;3.38;;;5.90;90.00;;;;;;4980547;28;20051;-49
2021/03/14 07:20:10;;;;;;;11.23;2.10;;;5.90;90.00;;;;;;5000690;28;20064;-51
2021/03/14 07:22:37;;;;;;;48.63;33.22;;;5.80;89.30;;;;;;5000139;28;20078;-55
2021/03/14 07:25:05;;;;;;;22.90;9.45;;;6.00;89.40;;;;;;4998638;28;20068;-53
2021/03/14 07:27:32;;;;;;;44.45;30.10;;;6.20;89.50;;;;;;4984920;28;20046;-52
2021/03/14 07:29:59;;;;;;;12.73;4.55;;;6.60;87.90;;;;;;5000939;28;20137;-52
2021/03/14 07:32:26;;;;;;;11.75;2.30;;;6.90;87.50;;;;;;5002264;28;20053;-55
2021/03/14 07:34:52;;;;;;;9.45;2.17;;;7.10;83.40;;;;;;4998523;28;20096;-51
2021/03/14 07:37:19;;;;;;;12.98;4.25;;;7.20;84.60;;;;;;5016901;28;20054;-52
2021/03/14 07:39:47;;;;;;;12.82;2.67;;;7.30;89.60;;;;;;4994315;28;20152;-53
2021/03/14 07:42:19;;;;;;;8.45;2.60;;;7.40;88.40;;;;;;5001311;28;20528;-48
2021/03/14 07:44:45;;;;;;;13.75;4.80;;;7.50;84.20;;;;;;4997790;28;20146;-54
2021/03/14 07:47:17;;;;;;;12.30;3.22;;;7.80;86.90;;;;;;4991597;28;20054;-51
2021/03/14 07:49:49;;;;;;;9.32;2.40;;;8.20;83.90;;;;;;4999329;28;20050;-57
2021/03/14 07:52:23;;;;;;;11.65;2.35;;;8.50;83.40;;;;;;4993247;28;20057;-56
2021/03/14 07:54:59;;;;;;;10.10;3.05;;;8.50;78.80;;;;;;4993044;28;20502;-53
2021/03/14 07:57:26;;;;;;;10.18;2.75;;;8.80;83.80;;;;;;4995393;28;20120;-52
2021/03/14 07:59:52;;;;;;;9.70;2.90;;;8.90;84.00;;;;;;5002179;28;20050;-52
2021/03/14 08:02:18;;;;;;;70.03;55.15;;;9.20;81.70;;;;;;4993447;28;20097;-53
2021/03/14 08:04:58;;;;;;;18.20;8.68;;;9.40;84.60;;;;;;5000647;28;20104;-54
2021/03/14 08:07:33;;;;;;;11.65;3.53;;;9.40;76.70;;;;;;5007302;28;20046;-52
2021/03/14 08:10:00;;;;;;;8.82;3.05;;;9.50;78.00;;;;;;4999501;28;20054;-54
2021/03/14 08:12:35;;;;;;;12.73;2.95;;;10.10;80.60;;;;;;4978608;28;20050;-53
2021/03/14 08:15:19;;;;;;;13.93;5.15;;;10.20;82.40;;;;;;5002734;28;20491;-50
2021/03/14 08:17:54;;;;;;;8.98;2.55;;;10.30;81.60;;;;;;5001214;28;20053;-52
2021/03/14 08:20:48;;;;;;;12.82;4.25;;;10.10;74.00;;;;;;4997890;28;20042;-50
2021/03/14 08:23:41;;;;;;;27.70;14.73;;;9.60;77.60;;;;;;5003417;28;20136;-49
2021/03/14 08:26:27;;;;;;;18.77;8.18;;;9.40;80.00;;;;;;5006437;28;20140;-46
2021/03/14 08:29:04;;;;;;;23.15;10.85;;;9.20;81.00;;;;;;5004636;28;20052;-44
2021/03/14 08:31:40;;;;;;;12.65;3.75;;;9.40;81.90;;;;;;5004670;28;20165;-44
2021/03/14 08:34:13;;;;;;;10.65;2.63;;;9.30;79.80;;;;;;5004056;28;20049;-47
2021/03/14 08:36:43;;;;;;;13.13;3.25;;;9.00;80.80;;;;;;4999038;28;20050;-43
2021/03/14 08:39:28;;;;;;;15.10;3.47;;;9.00;79.50;;;;;;5009221;28;20096;-44
2021/03/14 08:41:57;;;;;;;14.82;3.42;;;8.90;78.90;;;;;;4996845;28;20050;-45
2021/03/14 08:44:43;;;;;;;12.93;3.80;;;9.00;80.30;;;;;;5006738;28;20494;-43
2021/03/14 08:47:13;;;;;;;12.15;3.78;;;9.10;78.20;;;;;;5004809;28;20050;-46
2021/03/14 08:49:45;;;;;;;11.07;3.10;;;9.40;78.40;;;;;;5006668;28;20068;-43
2021/03/14 08:52:11;;;;;;;12.98;3.92;;;9.10;77.40;;;;;;5006760;28;20505;-44
2021/03/14 08:54:44;;;;;;;9.43;3.28;;;9.60;80.10;;;;;;5005048;28;20676;-46
2021/03/14 08:57:15;;;;;;;10.15;3.03;;;10.00;80.00;;;;;;5006987;28;20052;-44
2021/03/14 08:59:52;;;;;;;13.18;3.55;;;10.20;76.30;;;;;;5007511;28;20073;-46
2021/03/14 09:02:32;;;;;;;15.05;3.55;;;10.40;75.30;;;;;;5000111;28;20042;-43
2021/03/14 09:05:21;;;;;;;13.45;2.85;;;10.10;74.60;;;;;;4999149;28;20046;-41
2021/03/14 09:08:07;;;;;;;16.23;3.90;;;10.10;76.10;;;;;;5000793;28;20046;-42
2021/03/14 09:10:35;;;;;;;18.33;3.35;;;9.80;72.90;;;;;;4989610;28;20101;-43
2021/03/14 09:13:02;;;;;;;15.48;3.53;;;9.50;73.20;;;;;;4987161;28;20061;-45
2021/03/14 09:15:28;;;;;;;15.10;3.65;;;9.00;76.70;;;;;;4996952;28;20038;-43
2021/03/14 09:18:00;;;;;;;13.65;3.70;;;8.90;79.70;;;;;;5004735;28;20046;-45
2021/03/14 09:20:25;;;;;;;15.10;3.83;;;8.90;78.20;;;;;;5005870;28;20060;-45
2021/03/14 09:22:51;;;;;;;14.55;3.92;;;8.90;78.10;;;;;;5002653;28;20050;-43
2021/03/14 09:25:17;;;;;;;12.27;3.58;;;8.90;78.80;;;;;;5007438;28;20042;-41
2021/03/14 09:27:45;;;;;;;15.57;3.92;;;9.30;77.50;;;;;;5006305;28;20050;-45
2021/03/14 09:30:19;;;;;;;13.48;3.17;;;9.00;75.50;;;;;;5004426;28;20495;-41
2021/03/14 09:32:51;;;;;;;14.52;3.72;;;9.30;75.50;;;;;;5004745;28;20060;-43
2021/03/14 09:35:26;;;;;;;11.57;4.43;;;9.60;76.60;;;;;;5004454;28;20045;-42
2021/03/14 09:37:56;;;;;;;12.50;3.60;;;10.00;73.20;;;;;;5002998;28;20088;-46
2021/03/14 09:40:27;;;;;;;14.60;3.20;;;10.40;72.90;;;;;;4999337;28;20050;-42
2021/03/14 09:43:09;;;;;;;13.40;2.93;;;10.60;69.20;;;;;;5008738;28;20053;-43
2021/03/14 09:45:40;;;;;;;12.75;3.22;;;10.00;68.80;;;;;;4984209;28;20061;-44
2021/03/14 09:48:06;;;;;;;10.63;3.50;;;9.70;72.90;;;;;;4992640;28;20487;-44
2021/03/14 09:50:39;;;;;;;12.05;3.30;;;9.30;74.50;;;;;;5005072;28;20060;-42
2021/03/14 09:53:07;;;;;;;9.57;2.95;;;9.80;74.20;;;;;;5003603;28;20096;-42
2021/03/14 09:55:44;;;;;;;12.40;3.05;;;10.30;73.10;;;;;;5003460;28;20069;-42
2021/03/14 09:58:18;;;;;;;16.60;3.03;;;10.50;70.00;;;;;;5007065;28;20050;-45
2021/03/14 10:00:47;;;;;;;11.15;2.92;;;10.60;71.50;;;;;;5001738;28;20414;-44
2021/03/14 10:03:15;;;;;;;9.55;2.60;;;10.10;76.30;;;;;;5004377;28;20049;-42
2021/03/14 10:05:44;;;;;;;14.80;4.38;;;9.40;76.30;;;;;;5005589;28;20050;-43
2021/03/14 10:08:14;;;;;;;12.35;2.83;;;8.90;78.90;;;;;;5005631;28;20077;-45
2021/03/14 10:10:40;;;;;;;12.98;3.25;;;8.60;77.80;;;;;;5004197;28;20899;-44
2021/03/14 10:13:07;;;;;;;10.48;2.97;;;8.40;80.00;;;;;;5009112;28;20045;-45
2021/03/14 10:15:35;;;;;;;11.05;2.88;;;8.40;79.30;;;;;;5005084;28;20152;-44
2021/03/14 10:18:03;;;;;;;10.82;3.42;;;9.30;80.10;;;;;;5005341;28;20073;-45
2021/03/14 10:20:33;;;;;;;16.23;3.65;;;10.30;75.60;;;;;;5007735;28;20125;-47
2021/03/14 10:23:06;;;;;;;12.65;3.50;;;11.40;73.50;;;;;;5004225;28;20061;-42
2021/03/14 10:25:35;;;;;;;11.93;2.92;;;12.20;71.70;;;;;;5012540;28;20125;-45
2021/03/14 10:28:06;;;;;;;11.07;2.78;;;11.90;66.70;;;;;;5005694;28;20060;-45
2021/03/14 10:30:33;;;;;;;8.57;2.28;;;12.00;65.40;;;;;;5000636;28;20054;-44
2021/03/14 10:32:59;;;;;;;10.98;2.20;;;12.90;69.30;;;;;;5002525;28;20542;-42
2021/03/14 10:35:30;;;;;;;10.82;2.25;;;12.90;62.80;;;;;;5004648;28;20046;-45
2021/03/14 10:38:17;;;;;;;8.32;2.22;;;13.10;64.30;;;;;;5005022;28;20152;-44
2021/03/14 10:40:43;;;;;;;8.45;2.88;;;13.40;67.50;;;;;;5005606;28;20062;-51
2021/03/14 10:43:25;;;;;;;12.15;3.05;;;12.10;61.10;;;;;;5005532;28;20067;-44
2021/03/14 10:45:53;;;;;;;8.90;2.75;;;11.10;65.30;;;;;;5006117;28;20049;-43
2021/03/14 10:48:27;;;;;;;9.27;3.15;;;10.60;70.40;;;;;;5005357;28;20076;-43
2021/03/14 10:51:01;;;;;;;9.55;2.47;;;11.50;67.70;;;;;;5008322;28;20050;-45
2021/03/14 10:53:27;;;;;;;12.73;6.40;;;12.40;66.60;;;;;;5001592;28;20410;-44
2021/03/14 10:56:15;;;;;;;8.43;3.70;;;13.50;65.90;;;;;;4991480;28;20072;-47
2021/03/14 10:58:43;;;;;;;15.95;12.93;;;13.60;61.20;;;;;;4990385;28;20104;-43
2021/03/14 11:01:15;;;;;;;11.15;3.17;;;12.80;61.70;;;;;;5001537;28;20457;-43
2021/03/14 11:03:41;;;;;;;13.30;11.55;;;11.50;68.00;;;;;;5000380;28;20049;-45
2021/03/14 11:06:18;;;;;;;10.35;7.25;;;10.90;70.30;;;;;;4996555;28;20167;-42
2021/03/14 11:08:46;;;;;;;14.13;12.73;;;10.00;71.00;;;;;;4992799;28;20057;-42
2021/03/14 11:11:14;;;;;;;78.50;65.68;;;9.80;73.40;;;;;;4990483;28;20065;-63
2021/03/14 11:13:45;;;;;;;13.15;11.30;;;10.40;73.60;;;;;;4995083;28;20050;-51
2021/03/14 11:16:11;;;;;;;14.70;9.13;;;10.50;73.30;;;;;;4995256;28;20054;-56
2021/03/14 11:18:37;;;;;;;11.98;3.60;;;9.90;68.80;;;;;;5000643;28;20730;-58
2021/03/14 11:21:07;;;;;;;17.60;10.05;;;9.80;73.00;;;;;;4986831;28;20458;-45
2021/03/14 11:23:33;;;;;;;22.38;12.23;;;9.90;73.00;;;;;;4997953;28;20042;-46
2021/03/14 11:25:59;;;;;;;10.43;5.95;;;10.50;72.40;;;;;;4997684;28;20062;-46
2021/03/14 11:28:27;;;;;;;12.65;3.45;;;10.40;70.80;;;;;;4995502;28;20086;-45
2021/03/14 11:30:55;;;;;;;9.73;2.90;;;10.10;70.20;;;;;;4998719;28;20054;-45
2021/03/14 11:33:21;;;;;;;11.35;3.13;;;9.70;70.70;;;;;;4993382;28;20050;-45
2021/03/14 11:35:46;;;;;;;10.20;4.88;;;9.30;70.60;;;;;;4990809;28;20061;-46
2021/03/14 11:38:12;;;;;;;8.85;1.90;;;9.70;70.00;;;;;;5000672;28;20540;-45
2021/03/14 11:40:38;;;;;;;7.40;2.08;;;9.40;69.50;;;;;;4996419;28;20137;-45
2021/03/14 11:43:04;;;;;;;5.57;1.67;;;9.40;71.80;;;;;;4998933;28;20128;-44
2021/03/14 11:45:30;;;;;;;10.35;2.10;;;10.50;72.50;;;;;;5001933;28;20053;-44
2021/03/14 11:47:56;;;;;;;11.02;5.82;;;11.70;70.40;;;;;;5001615;28;20054;-52
2021/03/14 11:50:22;;;;;;;5.72;2.35;;;12.60;67.40;;;;;;5001418;28;20140;-48
2021/03/14 11:52:49;;;;;;;10.77;4.30;;;12.40;59.70;;;;;;4991715;28;20179;-50
2021/03/14 11:55:16;;;;;;;4.75;1.85;;;11.90;62.80;;;;;;4993342;28;20050;-49
2021/03/14 11:57:42;;;;;;;7.18;2.78;;;11.90;61.70;;;;;;4994510;28;20513;-48
2021/03/14 12:00:09;;;;;;;7.43;3.05;;;12.40;61.20;;;;;;5001265;28;20053;-45
2021/03/14 12:02:36;;;;;;;6.68;1.98;;;13.40;61.30;;;;;;4999205;28;20054;-46
2021/03/14 12:05:04;;;;;;;4.55;1.23;;;14.20;62.50;;;;;;4979654;28;20133;-47
2021/03/14 12:07:35;;;;;;;7.38;3.00;;;14.50;54.40;;;;;;5003013;28;20045;-49
2021/03/14 12:10:01;;;;;;;6.15;1.45;;;14.20;55.00;;;;;;4999107;28;20073;-47
2021/03/14 12:12:29;;;;;;;6.32;2.15;;;14.30;55.70;;;;;;5001366;28;20048;-46
2021/03/14 12:14:55;;;;;;;4.95;1.80;;;14.50;54.30;;;;;;4998659;28;20168;-49
2021/03/14 12:17:24;;;;;;;8.15;1.70;;;14.50;55.50;;;;;;4996599;28;20495;-50
2021/03/14 12:19:50;;;;;;;6.38;1.83;;;14.20;58.50;;;;;;4995860;28;20058;-49
2021/03/14 12:22:16;;;;;;;9.35;2.15;;;13.00;57.10;;;;;;5009816;28;20049;-48
2021/03/14 12:24:42;;;;;;;7.75;2.22;;;12.40;60.60;;;;;;4998374;28;20406;-44
2021/03/14 12:27:08;;;;;;;8.18;2.00;;;12.20;60.60;;;;;;5002076;28;20046;-50
2021/03/14 12:29:34;;;;;;;9.18;2.08;;;11.20;61.80;;;;;;4999691;28;20038;-47
2021/03/14 12:32:00;;;;;;;8.68;2.38;;;10.60;65.60;;;;;;5002378;28;20100;-47
2021/03/14 12:34:26;;;;;;;8.88;2.22;;;10.50;67.70;;;;;;5004941;28;20061;-45
2021/03/14 12:36:52;;;;;;;10.38;2.28;;;11.30;67.10;;;;;;5001957;28;20144;-49
2021/03/14 12:39:18;;;;;;;11.27;2.20;;;12.30;64.00;;;;;;5003831;28;20056;-47
2021/03/14 12:41:43;;;;;;;8.10;2.05;;;13.30;61.10;;;;;;4999478;28;20256;-46
2021/03/14 12:44:09;;;;;;;7.68;2.15;;;13.80;61.00;;;;;;5003191;28;20505;-46
2021/03/14 12:46:35;;;;;;;9.40;1.98;;;13.90;60.00;;;;;;4999235;28;20046;-50
2021/03/14 12:49:01;;;;;;;6.90;2.10;;;14.60;57.00;;;;;;4997667;28;20097;-48
2021/03/14 12:51:27;;;;;;;8.50;2.03;;;14.30;55.80;;;;;;5005377;28;20045;-48
2021/03/14 12:53:52;;;;;;;7.18;1.55;;;14.20;55.10;;;;;;4992546;28;20050;-47
2021/03/14 12:56:18;;;;;;;9.15;2.30;;;13.90;53.40;;;;;;4991963;28;20185;-47
2021/03/14 12:58:44;;;;;;;5.47;1.52;;;15.10;56.40;;;;;;5005892;28;20493;-47
2021/03/14 13:01:10;;;;;;;9.23;1.73;;;15.00;55.80;;;;;;4998346;28;20065;-49
2021/03/14 13:03:36;;;;;;;7.43;1.40;;;15.00;53.80;;;;;;4983674;28;20045;-49
2021/03/14 13:06:02;;;;;;;9.00;1.83;;;15.50;57.10;;;;;;4987855;28;20085;-52
2021/03/14 13:08:30;;;;;;;7.65;1.92;;;15.20;54.80;;;;;;5007001;28;20080;-48